Time;durP1;ratioP1;P1;durP2;ratioP2;P2;SDS_P1;SDS_P2;PMS_P1;PMS_P2;Temp;Humidity;BMP_temperature;BMP_pressure;BME280_temperature;BME280_humidity;BME280_pressure;Samples;Min_cycle;Max_cycle;Signal;HPM_P1;HPM_P2
2022/12/06 00:00:46;;;;;;;78.93;19.88;;;;;;;;;;4993873;28;20632;-75
2022/12/06 00:03:13;;;;;;;78.85;20.50;;;;;;;;;;4994269;28;20230;-75
2022/12/06 00:05:40;;;;;;;80.00;20.75;;;;;;;;;;4994394;28;20210;-75
2022/12/06 00:08:07;;;;;;;85.40;22.63;;;;;;;;;;4994221;28;20632;-75
2022/12/06 00:10:36;;;;;;;80.88;21.10;;;;;;;;;;4993620;28;20246;-75
2022/12/06 00:13:04;;;;;;;79.82;19.48;;;;;;;;;;4994440;28;20216;-75
2022/12/06 00:15:31;;;;;;;78.07;20.23;;;;;;;;;;4993680;28;20582;-75
2022/12/06 00:17:58;;;;;;;80.15;19.13;;;;;;;;;;4994092;28;20216;-75
2022/12/06 00:20:25;;;;;;;80.57;21.05;;;;;;;;;;4993422;28;20234;-75
2022/12/06 00:22:53;;;;;;;79.60;20.20;;;;;;;;;;4994131;28;20234;-75
2022/12/06 00:25:20;;;;;;;83.78;20.17;;;;;;;;;;4993933;28;20214;-75
2022/12/06 00:27:48;;;;;;;79.13;19.65;;;;;;;;;;4993867;28;20213;-75
2022/12/06 00:30:15;;;;;;;77.85;20.05;;;;;;;;;;4993505;28;20232;-75
2022/12/06 00:32:42;;;;;;;77.95;20.48;;;;;;;;;;4994195;28;20210;-75
2022/12/06 00:35:10;;;;;;;82.03;21.70;;;;;;;;;;4993803;28;20211;-75
2022/12/06 00:37:37;;;;;;;79.38;20.10;;;;;;;;;;4993743;28;20245;-75
2022/12/06 00:40:04;;;;;;;78.97;18.90;;;;;;;;;;4992805;28;20244;-75
2022/12/06 00:42:31;;;;;;;84.68;21.25;;;;;;;;;;4993905;28;20211;-75
2022/12/06 00:45:00;;;;;;;82.03;20.95;;;;;;;;;;4993717;28;20651;-75
2022/12/06 00:47:27;;;;;;;83.85;20.90;;;;;;;;;;4993563;28;20207;-75
2022/12/06 00:49:54;;;;;;;83.85;20.35;;;;;;;;;;4992657;28;20332;-75
2022/12/06 00:52:21;;;;;;;77.85;19.23;;;;;;;;;;4993392;28;20206;-75
2022/12/06 00:54:48;;;;;;;90.85;25.40;;;;;;;;;;4993638;28;20201;-75
2022/12/06 00:57:15;;;;;;;90.65;25.95;;;;;;;;;;4993418;28;20217;-75
2022/12/06 00:59:42;;;;;;;82.65;22.58;;;;;;;;;;4992667;28;20256;-75
2022/12/06 01:02:11;;;;;;;81.75;23.35;;;;;;;;;;4993315;28;20577;-75
2022/12/06 01:04:38;;;;;;;83.55;22.60;;;;;;;;;;4993189;28;20324;-75
2022/12/06 01:07:05;;;;;;;80.57;21.10;;;;;;;;;;4993175;28;20309;-75
2022/12/06 01:09:32;;;;;;;82.03;21.20;;;;;;;;;;4992476;28;20718;-75
2022/12/06 01:11:59;;;;;;;80.95;20.20;;;;;;;;;;4993260;28;20205;-75
2022/12/06 01:14:26;;;;;;;78.00;20.23;;;;;;;;;;4993259;28;20585;-75
2022/12/06 01:16:53;;;;;;;80.68;20.88;;;;;;;;;;4993155;28;20229;-75
2022/12/06 01:19:22;;;;;;;82.78;20.85;;;;;;;;;;4992261;28;20238;-75
2022/12/06 01:21:49;;;;;;;82.43;19.70;;;;;;;;;;4993167;28;20747;-75
2022/12/06 01:24:16;;;;;;;76.55;19.33;;;;;;;;;;4993377;28;20238;-75
2022/12/06 01:26:43;;;;;;;79.03;19.92;;;;;;;;;;4992440;28;20210;-75
2022/12/06 01:29:11;;;;;;;78.20;20.08;;;;;;;;;;4992472;28;20229;-76
2022/12/06 01:31:39;;;;;;;79.97;20.27;;;;;;;;;;4993098;28;20216;-75
2022/12/06 01:34:06;;;;;;;81.82;20.58;;;;;;;;;;4992677;28;20210;-75
2022/12/06 01:36:35;;;;;;;81.68;20.17;;;;;;;;;;4993016;28;20230;-75
2022/12/06 01:39:05;;;;;;;80.65;20.52;;;;;;;;;;4992109;28;20351;-75
2022/12/06 01:41:32;;;;;;;78.93;18.35;;;;;;;;;;4992899;28;20214;-75
2022/12/06 01:43:59;;;;;;;79.75;18.92;;;;;;;;;;4992713;28;20234;-75
2022/12/06 01:46:31;;;;;;;81.38;20.02;;;;;;;;;;4992517;28;20210;-75
2022/12/06 01:49:02;;;;;;;80.05;18.60;;;;;;;;;;4991781;28;20220;-75
2022/12/06 01:51:29;;;;;;;76.70;18.30;;;;;;;;;;4992394;28;20218;-75
2022/12/06 01:53:59;;;;;;;78.60;19.52;;;;;;;;;;4992498;28;20209;-75
2022/12/06 01:56:26;;;;;;;80.32;20.73;;;;;;;;;;4992512;28;20210;-75
2022/12/06 01:58:55;;;;;;;78.72;19.75;;;;;;;;;;4991801;28;20562;-75
2022/12/06 02:01:22;;;;;;;86.15;21.70;;;;;;;;;;4992645;28;20207;-75
2022/12/06 02:03:49;;;;;;;82.13;20.67;;;;;;;;;;4992311;28;20741;-75
2022/12/06 02:06:17;;;;;;;81.88;20.98;;;;;;;;;;4992660;28;20214;-75
2022/12/06 02:08:45;;;;;;;77.75;19.42;;;;;;;;;;4991605;28;20218;-75
2022/12/06 02:11:13;;;;;;;75.95;19.35;;;;;;;;;;4992406;28;20211;-75
2022/12/06 02:13:41;;;;;;;80.65;20.48;;;;;;;;;;5002622;28;20192;-75
2022/12/06 02:16:14;;;;;;;81.65;21.75;;;;;;;;;;5031879;28;20211;-75
2022/12/06 02:18:45;;;;;;;76.43;18.52;;;;;;;;;;5030978;28;20680;-75
2022/12/06 02:21:16;;;;;;;78.97;20.00;;;;;;;;;;5031620;28;20204;-75
2022/12/06 02:24:01;;;;;;;82.10;21.33;;;;;;;;;;5031649;28;20320;-75
2022/12/06 02:26:34;;;;;;;79.80;19.65;;;;;;;;;;5031915;28;20217;-75
2022/12/06 02:29:21;;;;;;;78.78;18.80;;;;;;;;;;5030982;28;20207;-75
2022/12/06 02:31:51;;;;;;;77.60;18.08;;;;;;;;;;5028204;28;20215;-75
2022/12/06 02:34:21;;;;;;;84.45;20.77;;;;;;;;;;5031566;28;20214;-75
2022/12/06 02:36:50;;;;;;;78.00;17.98;;;;;;;;;;5031827;28;20314;-75
2022/12/06 02:39:19;;;;;;;76.75;18.52;;;;;;;;;;5034991;28;20613;-75
2022/12/06 02:41:48;;;;;;;83.68;19.83;;;;;;;;;;5035307;28;20209;-75
2022/12/06 02:44:19;;;;;;;77.47;18.25;;;;;;;;;;5035394;28;20234;-75
2022/12/06 02:46:46;;;;;;;78.88;19.63;;;;;;;;;;5035517;28;20208;-75
2022/12/06 02:49:15;;;;;;;79.35;18.40;;;;;;;;;;5034265;28;20240;-75
2022/12/06 02:51:43;;;;;;;79.57;20.48;;;;;;;;;;5035285;28;20220;-75
2022/12/06 02:54:10;;;;;;;80.82;19.30;;;;;;;;;;5035171;28;20299;-75
2022/12/06 02:56:38;;;;;;;79.45;18.95;;;;;;;;;;5035089;28;20685;-75
2022/12/06 02:59:05;;;;;;;80.18;19.00;;;;;;;;;;5034089;28;20249;-75
2022/12/06 03:01:34;;;;;;;77.32;19.23;;;;;;;;;;5035180;28;20209;-75
2022/12/06 03:04:07;;;;;;;81.88;20.05;;;;;;;;;;5034986;28;20235;-75
2022/12/06 03:06:49;;;;;;;80.85;19.17;;;;;;;;;;5035000;28;20224;-74
2022/12/06 03:09:26;;;;;;;83.78;18.42;;;;;;;;;;5034013;28;20236;-75
2022/12/06 03:12:07;;;;;;;80.35;19.88;;;;;;;;;;5034745;28;20204;-75
2022/12/06 03:14:38;;;;;;;79.78;19.40;;;;;;;;;;5034703;28;20208;-75
2022/12/06 03:17:10;;;;;;;76.82;17.98;;;;;;;;;;5034793;28;20213;-76
2022/12/06 03:19:39;;;;;;;78.47;18.30;;;;;;;;;;5033900;28;20323;-75
2022/12/06 03:22:08;;;;;;;81.22;19.50;;;;;;;;;;5034574;28;20676;-75
2022/12/06 03:24:39;;;;;;;80.90;19.45;;;;;;;;;;5034667;28;20234;-75
2022/12/06 03:27:08;;;;;;;79.82;20.00;;;;;;;;;;5034506;28;20711;-75
2022/12/06 03:29:38;;;;;;;79.47;19.45;;;;;;;;;;5033612;28;20234;-75
2022/12/06 03:32:06;;;;;;;81.88;20.50;;;;;;;;;;5034468;28;20663;-75
2022/12/06 03:34:36;;;;;;;79.60;18.77;;;;;;;;;;5034531;28;20606;-76
2022/12/06 03:37:05;;;;;;;79.10;18.50;;;;;;;;;;5034486;28;20212;-75
2022/12/06 03:39:35;;;;;;;76.00;17.60;;;;;;;;;;5033381;28;20260;-75
2022/12/06 03:42:04;;;;;;;81.72;18.38;;;;;;;;;;5034317;28;20209;-75
2022/12/06 03:44:31;;;;;;;79.82;17.77;;;;;;;;;;5033986;28;20231;-75
2022/12/06 03:47:01;;;;;;;78.32;18.17;;;;;;;;;;5034190;28;20578;-75
2022/12/06 03:49:31;;;;;;;78.07;18.95;;;;;;;;;;5032083;28;20233;-76
2022/12/06 03:51:59;;;;;;;77.68;18.58;;;;;;;;;;5034347;28;20212;-75
2022/12/06 03:54:26;;;;;;;76.20;18.92;;;;;;;;;;5034117;28;20554;-75
2022/12/06 03:56:53;;;;;;;80.60;19.38;;;;;;;;;;5034033;28;20226;-75
2022/12/06 03:59:21;;;;;;;76.95;19.38;;;;;;;;;;5032882;28;20648;-75
2022/12/06 04:01:49;;;;;;;77.75;16.65;;;;;;;;;;5033961;28;20208;-75
2022/12/06 04:04:16;;;;;;;78.53;19.60;;;;;;;;;;5033953;28;20230;-75
2022/12/06 04:06:43;;;;;;;82.10;20.60;;;;;;;;;;5033696;28;20304;-76
2022/12/06 04:12:59;;;;;;;74.18;17.38;;;;;;;;;;4972589;28;20241;-75
2022/12/06 04:14:55;;;;;;;76.65;18.73;;;;;;;;;;5027361;28;20220;-75
2022/12/06 04:20:07;;;;;;;81.45;20.75;;;;;;;;;;5032683;28;20617;-75
2022/12/06 04:25:19;;;;;;;81.15;19.77;;;;;;;;;;5033582;28;20240;-75
2022/12/06 04:38:47;;;;;;;77.00;18.90;;;;;;;;;;5032351;28;20226;-75
2022/12/06 04:43:40;;;;;;;78.85;18.45;;;;;;;;;;5033088;28;20221;-75
2022/12/06 04:44:01;;;;;;;75.43;18.77;;;;;;;;;;5033055;28;20644;-75
2022/12/06 04:46:29;;;;;;;78.15;19.30;;;;;;;;;;5033078;28;20207;-75
2022/12/06 04:48:56;;;;;;;78.07;19.08;;;;;;;;;;5032066;28;20227;-75
2022/12/06 04:51:24;;;;;;;75.88;18.55;;;;;;;;;;5032732;28;20219;-75
2022/12/06 04:53:51;;;;;;;77.68;19.35;;;;;;;;;;5032855;28;20313;-76
2022/12/06 04:56:18;;;;;;;84.43;21.80;;;;;;;;;;5033008;28;20211;-75
2022/12/06 04:58:46;;;;;;;80.72;19.27;;;;;;;;;;5032296;28;20549;-75
2022/12/06 05:01:13;;;;;;;76.18;18.33;;;;;;;;;;5032612;28;20212;-75
2022/12/06 05:03:41;;;;;;;76.38;18.50;;;;;;;;;;5032663;28;20304;-75
2022/12/06 05:06:09;;;;;;;76.68;18.83;;;;;;;;;;5032577;28;20216;-76
2022/12/06 05:08:36;;;;;;;79.47;18.95;;;;;;;;;;5032120;28;20219;-75
2022/12/06 05:11:03;;;;;;;77.78;19.63;;;;;;;;;;5032637;28;20233;-75
2022/12/06 05:13:30;;;;;;;76.90;18.65;;;;;;;;;;5032538;28;20237;-75
2022/12/06 05:15:58;;;;;;;77.93;17.58;;;;;;;;;;5032545;28;20212;-75
2022/12/06 05:18:26;;;;;;;80.18;19.27;;;;;;;;;;5032812;28;20208;-75
2022/12/06 05:21:01;;;;;;;75.43;18.20;;;;;;;;;;5032023;28;20589;-75
2022/12/06 05:23:28;;;;;;;78.18;18.10;;;;;;;;;;5032319;28;20214;-76
2022/12/06 05:25:57;;;;;;;79.13;19.52;;;;;;;;;;5032506;28;20237;-75
2022/12/06 05:28:25;;;;;;;78.88;18.65;;;;;;;;;;5032273;28;20572;-75
2022/12/06 05:30:52;;;;;;;74.70;16.92;;;;;;;;;;5031536;28;20222;-76
2022/12/06 05:33:19;;;;;;;81.35;18.80;;;;;;;;;;5032161;28;20222;-75
2022/12/06 05:35:46;;;;;;;79.35;18.55;;;;;;;;;;5032143;28;20212;-76
2022/12/06 05:38:14;;;;;;;80.47;19.73;;;;;;;;;;5032248;28;20208;-75
2022/12/06 05:40:42;;;;;;;80.22;21.02;;;;;;;;;;5031416;28;20734;-75
2022/12/06 05:43:09;;;;;;;75.20;17.52;;;;;;;;;;5031999;28;20699;-75
2022/12/06 05:45:36;;;;;;;76.97;17.48;;;;;;;;;;5031947;28;20229;-76
2022/12/06 05:48:04;;;;;;;80.32;17.20;;;;;;;;;;5031985;28;20213;-75
2022/12/06 05:50:31;;;;;;;75.13;17.83;;;;;;;;;;5031311;28;20232;-75
2022/12/06 05:52:59;;;;;;;75.85;17.90;;;;;;;;;;5032090;28;20214;-75
2022/12/06 05:55:28;;;;;;;75.70;18.10;;;;;;;;;;5031942;28;20209;-75
2022/12/06 05:57:55;;;;;;;77.65;17.60;;;;;;;;;;5031809;28;20704;-75
2022/12/06 06:00:23;;;;;;;76.18;18.42;;;;;;;;;;5031201;28;20240;-75
2022/12/06 06:02:50;;;;;;;81.07;20.85;;;;;;;;;;5032047;28;20619;-75
2022/12/06 06:05:17;;;;;;;78.30;18.05;;;;;;;;;;5031797;28;20327;-75
2022/12/06 06:07:44;;;;;;;78.03;19.05;;;;;;;;;;5031945;28;20299;-75
2022/12/06 06:10:11;;;;;;;80.75;18.63;;;;;;;;;;5031381;28;20260;-75
2022/12/06 06:12:40;;;;;;;74.07;16.80;;;;;;;;;;5033442;28;20212;-75
2022/12/06 06:15:07;;;;;;;76.43;18.73;;;;;;;;;;5036145;28;20289;-75
2022/12/06 06:17:35;;;;;;;76.43;17.35;;;;;;;;;;5035992;28;20205;-75
2022/12/06 06:20:05;;;;;;;72.65;16.67;;;;;;;;;;5035026;28;20239;-75
2022/12/06 06:22:32;;;;;;;74.45;17.35;;;;;;;;;;5035780;28;20209;-75
2022/12/06 06:24:59;;;;;;;75.68;16.45;;;;;;;;;;5035535;28;20802;-75
2022/12/06 06:27:26;;;;;;;75.00;16.80;;;;;;;;;;5035826;28;20206;-75
2022/12/06 06:29:55;;;;;;;72.65;16.63;;;;;;;;;;5034901;28;20232;-75
2022/12/06 06:32:22;;;;;;;75.88;16.73;;;;;;;;;;5035529;28;20209;-75
2022/12/06 06:34:49;;;;;;;73.57;15.98;;;;;;;;;;5035611;28;20201;-75
2022/12/06 06:37:16;;;;;;;73.00;16.58;;;;;;;;;;5035383;28;20209;-75
2022/12/06 06:39:43;;;;;;;75.03;15.80;;;;;;;;;;5034398;28;20223;-75
2022/12/06 06:42:10;;;;;;;79.20;17.23;;;;;;;;;;5035316;28;20214;-75
2022/12/06 06:44:37;;;;;;;74.25;17.05;;;;;;;;;;5035409;28;20231;-75
2022/12/06 06:47:06;;;;;;;73.97;16.48;;;;;;;;;;5035377;28;20239;-75
2022/12/06 06:49:33;;;;;;;76.97;17.77;;;;;;;;;;5034824;28;20233;-75
2022/12/06 06:52:00;;;;;;;73.93;16.10;;;;;;;;;;5035006;28;20736;-75
2022/12/06 06:54:28;;;;;;;74.80;16.92;;;;;;;;;;5035558;28;20200;-75
2022/12/06 06:56:56;;;;;;;76.18;15.80;;;;;;;;;;5035136;28;20703;-76
2022/12/06 06:59:23;;;;;;;73.38;16.52;;;;;;;;;;5034432;28;20225;-75
2022/12/06 07:01:50;;;;;;;76.15;16.90;;;;;;;;;;5035388;28;20205;-76
2022/12/06 07:04:19;;;;;;;75.57;17.40;;;;;;;;;;5034953;28;20209;-75
2022/12/06 07:06:46;;;;;;;79.15;17.25;;;;;;;;;;5034939;28;20214;-75
2022/12/06 07:09:13;;;;;;;72.28;15.45;;;;;;;;;;5033929;28;20230;-75
2022/12/06 07:11:40;;;;;;;74.43;15.70;;;;;;;;;;5035159;28;20205;-75
2022/12/06 07:14:07;;;;;;;77.97;16.98;;;;;;;;;;5034818;28;20211;-75
2022/12/06 07:16:34;;;;;;;76.80;18.10;;;;;;;;;;5034918;28;20240;-75
2022/12/06 07:19:01;;;;;;;73.93;17.20;;;;;;;;;;5033736;28;20210;-75
2022/12/06 07:21:30;;;;;;;72.72;15.77;;;;;;;;;;5022434;28;20206;-75
2022/12/06 07:23:59;;;;;;;74.22;17.42;;;;;;;;;;5014914;28;20233;-75
2022/12/06 07:26:27;;;;;;;74.90;17.13;;;;;;;;;;5014859;28;20231;-75
2022/12/06 07:28:56;;;;;;;74.25;16.38;;;;;;;;;;5014021;28;20293;-75
2022/12/06 07:31:24;;;;;;;76.38;16.95;;;;;;;;;;5014580;28;20211;-75
2022/12/06 07:33:52;;;;;;;75.18;17.35;;;;;;;;;;5014562;28;20226;-75
2022/12/06 07:36:21;;;;;;;74.53;16.88;;;;;;;;;;5014938;28;20212;-75
2022/12/06 07:38:51;;;;;;;75.28;16.60;;;;;;;;;;5014432;28;20569;-75
2022/12/06 07:46:48;;;;;;;74.97;17.48;;;;;;;;;;5014637;28;20736;-75
2022/12/06 07:49:16;;;;;;;75.25;15.50;;;;;;;;;;5013544;28;20251;-75
2022/12/06 07:51:43;;;;;;;76.60;15.70;;;;;;;;;;5014208;28;20206;-76
2022/12/06 07:54:12;;;;;;;72.07;15.90;;;;;;;;;;5014240;28;20233;-75
2022/12/06 07:56:39;;;;;;;77.45;17.00;;;;;;;;;;5014358;28;20662;-76
2022/12/06 07:59:07;;;;;;;75.10;15.52;;;;;;;;;;5013288;28;20235;-77
2022/12/06 08:01:34;;;;;;;73.28;16.98;;;;;;;;;;5014519;28;20207;-77
2022/12/06 08:04:02;;;;;;;73.80;16.38;;;;;;;;;;5014282;28;20300;-77
2022/12/06 08:06:30;;;;;;;73.32;15.70;;;;;;;;;;5014117;28;20228;-77
2022/12/06 08:08:57;;;;;;;73.20;14.73;;;;;;;;;;5013072;28;20217;-76
2022/12/06 08:11:26;;;;;;;70.20;14.13;;;;;;;;;;5014032;28;20209;-78
2022/12/06 08:13:53;;;;;;;73.85;14.18;;;;;;;;;;5014730;28;20206;-76
2022/12/06 08:16:20;;;;;;;73.13;14.77;;;;;;;;;;5014135;28;20555;-76
2022/12/06 08:18:47;;;;;;;71.93;14.75;;;;;;;;;;5013072;28;20220;-76
2022/12/06 08:21:15;;;;;;;72.15;14.50;;;;;;;;;;5013937;28;20207;-76
2022/12/06 08:23:42;;;;;;;74.80;14.48;;;;;;;;;;5013796;28;20238;-76
2022/12/06 08:26:11;;;;;;;74.10;14.40;;;;;;;;;;5015442;28;20227;-77
2022/12/06 08:28:40;;;;;;;71.10;13.93;;;;;;;;;;5014616;28;20205;-78
2022/12/06 08:31:08;;;;;;;73.45;14.07;;;;;;;;;;5015692;28;20642;-77
2022/12/06 08:33:35;;;;;;;73.55;15.18;;;;;;;;;;5015329;28;20214;-77
2022/12/06 08:36:07;;;;;;;71.07;13.77;;;;;;;;;;5015220;28;20267;-77
2022/12/06 08:38:34;;;;;;;72.13;14.93;;;;;;;;;;5014390;28;20307;-78
2022/12/06 08:41:02;;;;;;;73.30;15.80;;;;;;;;;;5014855;28;20240;-78
2022/12/06 08:43:29;;;;;;;69.20;14.35;;;;;;;;;;5015096;28;20683;-77
2022/12/06 08:45:57;;;;;;;73.20;15.20;;;;;;;;;;5014732;28;20233;-77
2022/12/06 08:48:24;;;;;;;74.78;16.05;;;;;;;;;;5014713;28;20218;-78
2022/12/06 08:50:51;;;;;;;70.40;13.80;;;;;;;;;;5014304;28;20229;-78
2022/12/06 08:53:18;;;;;;;73.10;16.07;;;;;;;;;;5015384;28;20213;-78
2022/12/06 08:55:53;;;;;;;71.45;14.38;;;;;;;;;;5015446;28;20449;-78
2022/12/06 08:58:21;;;;;;;70.80;14.90;;;;;;;;;;5015472;28;20210;-78
2022/12/06 09:00:48;;;;;;;71.32;14.48;;;;;;;;;;5014313;28;20831;-77
2022/12/06 09:03:16;;;;;;;75.82;14.60;;;;;;;;;;5014432;28;20217;-78
2022/12/06 09:05:43;;;;;;;70.03;13.85;;;;;;;;;;5014309;28;20235;-77
2022/12/06 09:08:10;;;;;;;72.47;14.70;;;;;;;;;;5014319;28;20305;-77
2022/12/06 09:10:38;;;;;;;73.00;14.80;;;;;;;;;;5013658;28;20368;-77
2022/12/06 09:13:05;;;;;;;71.57;14.10;;;;;;;;;;5014479;28;20461;-77
2022/12/06 09:15:32;;;;;;;69.22;12.00;;;;;;;;;;5014452;28;20210;-77
2022/12/06 09:17:59;;;;;;;68.13;12.27;;;;;;;;;;5013967;28;20281;-77
2022/12/06 09:20:28;;;;;;;69.45;13.43;;;;;;;;;;5013217;28;20262;-77
2022/12/06 09:22:55;;;;;;;72.90;13.32;;;;;;;;;;5014022;28;20718;-76
2022/12/06 09:25:22;;;;;;;71.68;13.45;;;;;;;;;;5013764;28;20232;-77
2022/12/06 09:27:49;;;;;;;75.03;13.23;;;;;;;;;;5013687;28;20213;-77
2022/12/06 09:30:16;;;;;;;68.22;13.35;;;;;;;;;;5012315;28;20321;-77
2022/12/06 09:32:44;;;;;;;69.07;13.15;;;;;;;;;;5013085;28;20210;-76
2022/12/06 09:35:11;;;;;;;69.83;13.33;;;;;;;;;;5013479;28;20240;-77
2022/12/06 09:37:40;;;;;;;69.35;13.98;;;;;;;;;;5013647;28;20823;-77
2022/12/06 09:40:10;;;;;;;69.60;12.77;;;;;;;;;;5012350;28;20245;-77
2022/12/06 09:42:46;;;;;;;70.87;13.97;;;;;;;;;;5013294;28;20471;-76
2022/12/06 09:45:19;;;;;;;68.93;13.32;;;;;;;;;;5012609;28;20492;-77
2022/12/06 09:47:53;;;;;;;70.43;13.90;;;;;;;;;;5011980;28;20219;-77
2022/12/06 09:50:25;;;;;;;69.27;13.80;;;;;;;;;;5012045;28;21096;-77
2022/12/06 09:53:02;;;;;;;69.97;13.43;;;;;;;;;;5012734;28;20453;-77
2022/12/06 09:55:36;;;;;;;71.30;13.30;;;;;;;;;;5012899;28;20828;-77
2022/12/06 09:58:09;;;;;;;71.70;14.43;;;;;;;;;;5012827;28;20446;-77
2022/12/06 10:00:40;;;;;;;71.82;14.35;;;;;;;;;;5012032;28;20241;-77
2022/12/06 10:03:18;;;;;;;69.97;13.10;;;;;;;;;;5012546;28;20314;-76
2022/12/06 10:05:56;;;;;;;72.38;14.25;;;;;;;;;;5012970;28;20237;-77
2022/12/06 10:08:28;;;;;;;68.17;12.83;;;;;;;;;;5013190;28;20215;-77
2022/12/06 10:10:58;;;;;;;70.87;13.57;;;;;;;;;;5012480;28;20469;-77
2022/12/06 10:13:36;;;;;;;70.57;14.43;;;;;;;;;;5012997;28;20450;-77
2022/12/06 10:16:08;;;;;;;73.18;15.35;;;;;;;;;;5013039;28;20458;-77
2022/12/06 10:18:42;;;;;;;71.57;14.10;;;;;;;;;;5013218;28;20213;-77
2022/12/06 10:21:13;;;;;;;72.20;15.32;;;;;;;;;;5013361;28;20834;-78
2022/12/06 10:23:46;;;;;;;71.90;13.83;;;;;;;;;;5013427;28;20211;-77
2022/12/06 10:26:14;;;;;;;69.57;13.87;;;;;;;;;;5013135;28;20490;-77
2022/12/06 10:28:44;;;;;;;71.20;14.07;;;;;;;;;;5012135;28;20453;-77
2022/12/06 10:31:15;;;;;;;70.93;13.13;;;;;;;;;;5013160;28;20540;-78
2022/12/06 10:33:47;;;;;;;73.00;15.25;;;;;;;;;;5013210;28;20454;-78
2022/12/06 10:36:15;;;;;;;72.30;15.17;;;;;;;;;;5013188;28;20294;-77
2022/12/06 10:38:46;;;;;;;70.47;13.67;;;;;;;;;;5012250;28;20835;-77
2022/12/06 10:41:16;;;;;;;71.13;14.10;;;;;;;;;;5013137;28;20954;-77
2022/12/06 10:43:50;;;;;;;70.18;13.43;;;;;;;;;;5013135;28;20207;-77
2022/12/06 10:49:09;;;;;;;67.87;12.40;;;;;;;;;;4986665;28;20230;-77
2022/12/06 10:51:40;;;;;;;71.80;14.02;;;;;;;;;;5013112;28;20542;-77
2022/12/06 10:54:13;;;;;;;73.03;13.07;;;;;;;;;;5013031;28;20211;-77
2022/12/06 10:56:42;;;;;;;69.03;12.13;;;;;;;;;;5013640;28;20535;-77
2022/12/06 10:59:15;;;;;;;73.85;14.10;;;;;;;;;;5014506;28;20559;-76
2022/12/06 11:01:43;;;;;;;68.30;11.13;;;;;;;;;;5016995;28;20748;-77
2022/12/06 11:04:12;;;;;;;64.87;9.90;;;;;;;;;;5016543;28;20832;-77
2022/12/06 11:06:44;;;;;;;66.00;10.27;;;;;;;;;;5016374;28;20492;-77
2022/12/06 11:09:19;;;;;;;68.03;11.35;;;;;;;;;;5015391;28;20261;-76
2022/12/06 11:11:46;;;;;;;68.60;12.60;;;;;;;;;;5015461;28;20206;-77
2022/12/06 11:14:19;;;;;;;65.70;10.23;;;;;;;;;;5015465;28;20487;-76
2022/12/06 11:16:55;;;;;;;66.37;10.67;;;;;;;;;;5015396;28;20825;-76
2022/12/06 11:19:27;;;;;;;68.78;11.18;;;;;;;;;;5014383;28;20839;-76
2022/12/06 11:21:56;;;;;;;68.03;10.80;;;;;;;;;;5016291;28;20210;-77
2022/12/06 11:24:27;;;;;;;68.35;10.02;;;;;;;;;;5016852;28;20735;-77
2022/12/06 11:26:59;;;;;;;65.70;10.20;;;;;;;;;;5016150;28;20239;-78
2022/12/06 11:29:26;;;;;;;67.38;11.02;;;;;;;;;;5015935;28;21004;-77
2022/12/06 11:31:55;;;;;;;66.00;10.65;;;;;;;;;;5016180;28;20682;-77
2022/12/06 11:34:24;;;;;;;68.03;11.10;;;;;;;;;;5015643;28;20305;-76
2022/12/06 11:36:53;;;;;;;66.47;11.23;;;;;;;;;;5014953;28;20694;-77
2022/12/06 11:39:20;;;;;;;68.53;11.55;;;;;;;;;;5013936;28;20228;-76
2022/12/06 11:41:51;;;;;;;69.27;11.50;;;;;;;;;;5014942;28;20211;-77
2022/12/06 11:44:20;;;;;;;68.10;11.80;;;;;;;;;;5014741;28;20543;-77
2022/12/06 11:46:49;;;;;;;69.65;11.13;;;;;;;;;;5014519;28;20848;-75
2022/12/06 11:49:17;;;;;;;69.18;11.75;;;;;;;;;;5013502;28;20617;-75
2022/12/06 11:51:45;;;;;;;69.82;11.80;;;;;;;;;;5014362;28;20210;-75
2022/12/06 11:54:19;;;;;;;72.43;13.13;;;;;;;;;;5014224;28;20210;-76
2022/12/06 11:56:47;;;;;;;68.17;11.53;;;;;;;;;;5014449;28;20236;-75
2022/12/06 11:59:24;;;;;;;68.32;11.60;;;;;;;;;;5027070;28;20468;-75
2022/12/06 12:01:52;;;;;;;72.05;11.13;;;;;;;;;;5034017;28;20580;-75
2022/12/06 12:04:24;;;;;;;68.50;11.13;;;;;;;;;;5033870;28;20293;-76
2022/12/06 12:06:52;;;;;;;66.07;10.13;;;;;;;;;;5033638;28;20498;-76
2022/12/06 12:09:20;;;;;;;64.88;9.85;;;;;;;;;;5032896;28;20237;-76
2022/12/06 12:11:54;;;;;;;65.13;9.18;;;;;;;;;;5033292;28;20363;-76
2022/12/06 12:14:27;;;;;;;64.85;8.35;;;;;;;;;;5033908;28;20225;-75
2022/12/06 12:16:57;;;;;;;65.60;9.50;;;;;;;;;;5033678;28;20296;-76
2022/12/06 12:19:29;;;;;;;64.38;8.05;;;;;;;;;;5032722;28;20227;-76
2022/12/06 12:21:58;;;;;;;68.20;10.40;;;;;;;;;;5035313;28;20210;-78
2022/12/06 12:24:46;;;;;;;63.15;8.35;;;;;;;;;;5036024;28;20306;-78
2022/12/06 12:27:36;;;;;;;64.82;8.38;;;;;;;;;;5035975;28;20226;-78
2022/12/06 12:30:21;;;;;;;62.92;7.93;;;;;;;;;;5035283;28;20316;-78
2022/12/06 12:32:49;;;;;;;64.75;7.85;;;;;;;;;;5035853;28;20213;-78
2022/12/06 12:35:27;;;;;;;62.38;8.07;;;;;;;;;;5035319;28;20216;-78
2022/12/06 12:37:56;;;;;;;68.07;8.85;;;;;;;;;;5035369;28;20205;-78
2022/12/06 12:40:24;;;;;;;64.43;7.70;;;;;;;;;;5034326;28;20323;-78
2022/12/06 12:42:58;;;;;;;62.80;8.27;;;;;;;;;;5035452;28;20209;-78
2022/12/06 12:45:27;;;;;;;63.58;8.38;;;;;;;;;;5035407;28;20740;-78
2022/12/06 12:47:58;;;;;;;66.75;9.93;;;;;;;;;;5035244;28;20229;-78
2022/12/06 12:50:26;;;;;;;63.13;8.02;;;;;;;;;;5034540;28;20714;-78
2022/12/06 12:52:53;;;;;;;63.45;7.50;;;;;;;;;;5035492;28;20583;-78
2022/12/06 12:55:22;;;;;;;63.90;7.93;;;;;;;;;;5035756;28;20214;-78
2022/12/06 12:57:50;;;;;;;63.20;8.00;;;;;;;;;;5019419;28;20461;-78
2022/12/06 13:00:20;;;;;;;64.88;8.93;;;;;;;;;;5014394;28;20317;-77
2022/12/06 13:02:50;;;;;;;63.10;7.75;;;;;;;;;;5014822;28;20602;-78
2022/12/06 13:05:18;;;;;;;62.33;7.00;;;;;;;;;;5014229;28;20216;-78
2022/12/06 13:07:45;;;;;;;64.60;7.70;;;;;;;;;;5014328;28;20228;-77
2022/12/06 13:10:18;;;;;;;61.70;7.53;;;;;;;;;;5013203;28;20356;-77
2022/12/06 13:12:48;;;;;;;64.63;7.70;;;;;;;;;;5013539;28;20301;-77
2022/12/06 13:15:17;;;;;;;64.03;6.97;;;;;;;;;;5013887;28;20220;-78
2022/12/06 13:17:46;;;;;;;61.58;7.40;;;;;;;;;;5013364;28;20220;-77
2022/12/06 13:20:22;;;;;;;62.22;7.00;;;;;;;;;;5012372;28;20224;-77
2022/12/06 13:22:51;;;;;;;62.67;7.70;;;;;;;;;;5011898;28;20221;-77
2022/12/06 13:25:19;;;;;;;62.88;7.45;;;;;;;;;;5011731;28;20215;-77
2022/12/06 13:27:47;;;;;;;63.00;6.87;;;;;;;;;;5011333;28;20234;-77
2022/12/06 13:30:17;;;;;;;65.38;7.25;;;;;;;;;;5010374;28;20473;-79
2022/12/06 13:32:45;;;;;;;64.57;8.57;;;;;;;;;;5014392;28;20225;-78
2022/12/06 13:35:21;;;;;;;63.50;8.10;;;;;;;;;;5013606;28;20208;-78
2022/12/06 13:37:54;;;;;;;65.50;8.32;;;;;;;;;;5014183;28;20202;-78
2022/12/06 13:40:39;;;;;;;64.60;8.32;;;;;;;;;;5013828;28;20229;-78
2022/12/06 13:43:26;;;;;;;69.00;11.43;;;;;;;;;;5014987;28;20301;-78
2022/12/06 13:45:54;;;;;;;71.85;13.82;;;;;;;;;;5008237;28;20520;-75
2022/12/06 13:48:37;;;;;;;67.15;8.98;;;;;;;;;;5011851;28;20722;-73
2022/12/06 13:51:05;;;;;;;64.82;8.00;;;;;;;;;;5010934;28;20261;-77
2022/12/06 13:53:34;;;;;;;62.13;8.65;;;;;;;;;;5012773;28;20210;-76
2022/12/06 13:56:02;;;;;;;63.20;8.07;;;;;;;;;;5011728;28;20233;-75
2022/12/06 13:58:49;;;;;;;62.97;7.82;;;;;;;;;;5011982;28;20609;-76
2022/12/06 14:01:36;;;;;;;61.85;7.07;;;;;;;;;;5011999;28;20651;-76
2022/12/06 14:04:07;;;;;;;63.78;8.30;;;;;;;;;;5012626;28;20206;-78
2022/12/06 14:06:44;;;;;;;61.90;7.65;;;;;;;;;;5012238;28;20234;-77
2022/12/06 14:09:14;;;;;;;62.38;7.25;;;;;;;;;;5011727;28;20628;-78
2022/12/06 14:11:41;;;;;;;65.03;8.00;;;;;;;;;;5015634;28;20313;-79
2022/12/06 14:14:14;;;;;;;63.53;7.60;;;;;;;;;;5017525;28;20538;-78
2022/12/06 14:16:42;;;;;;;62.78;7.80;;;;;;;;;;5016566;28;20202;-78
2022/12/06 14:19:14;;;;;;;63.07;8.00;;;;;;;;;;5013855;28;20744;-78
2022/12/06 14:21:42;;;;;;;66.85;9.75;;;;;;;;;;5014801;28;20537;-79
2022/12/06 14:27:07;;;;;;;62.42;7.75;;;;;;;;;;5089140;27;20570;-76
2022/12/06 14:29:34;;;;;;;62.33;7.30;;;;;;;;;;5088493;28;20229;-77
2022/12/06 14:32:02;;;;;;;65.50;6.93;;;;;;;;;;5089299;28;20296;-77
2022/12/06 14:34:29;;;;;;;62.15;7.10;;;;;;;;;;5089259;28;20587;-77
2022/12/06 14:36:57;;;;;;;62.60;7.80;;;;;;;;;;5089245;28;20200;-77
2022/12/06 14:39:25;;;;;;;62.92;8.15;;;;;;;;;;5088543;28;20595;-77
2022/12/06 14:44:38;;;;;;;66.53;8.30;;;;;;;;;;5088976;28;20263;-77
2022/12/06 14:47:06;;;;;;;62.50;7.57;;;;;;;;;;5089023;28;20204;-77
2022/12/06 14:52:21;;;;;;;67.15;10.82;;;;;;;;;;5089055;28;20196;-76
2022/12/06 14:54:48;;;;;;;65.60;8.77;;;;;;;;;;5088926;28;20210;-76
2022/12/06 14:57:37;;;;;;;64.88;9.48;;;;;;;;;;5088813;28;20200;-76
2022/12/06 15:00:07;;;;;;;65.75;9.48;;;;;;;;;;5087924;28;20224;-76
2022/12/06 15:02:34;;;;;;;63.15;8.50;;;;;;;;;;5088893;28;20201;-76
2022/12/06 15:05:02;;;;;;;64.40;8.60;;;;;;;;;;5088695;28;20204;-76
2022/12/06 15:07:38;;;;;;;65.25;8.13;;;;;;;;;;5088591;28;20299;-76